24h
KLIENDITUGI:
Saartelennuliinid: +372 58856336 (24/7)
Estairi piletikassa lennujaamas:
+372 6058887; +372 55603687

15.03.2019 hommikune Transaviabaltika lend KTB670 Tallinn - Kärdla ja KTB671 Kärdla – Tallinn väljalend jääb ära. Lennu ära jäämise põhjustab ilmastikuolu Kärdla lennuväljal. Reisijatele võimaldatakse tasuta lennupileti ümberbroneerimine reisija soovi kohasele mõnele teisele Tallinn-Kärdla või Kärdla-Tallinn lennule. Reisijatele kes ei soovi lennupileti ümberbroneerimist teisele lennule tagastatakse piletiraha. Oma soovist tuleb teada anda e-mailile [email protected] Lisainformatsioon telefonil 58856336.

EEKA Kärdla lennuväli FCEO32 EETN 150400

TAF EEKA 150400Z 1505/1511 18010KT 5000 BR OVC004

TEMPO 1505/1508 0800 DZ FG VV002 TEMPO 1508/1511 6000 SHRA BKN005 SCT013CB=

SPECI EEKA 150430Z 17005KT 3600 BR BKN002 02/02 Q0994=
Kuupäev: 
15/03/2019